createdAt,value
2023-05-02T00:02:22.440Z,4.38
2023-05-02T00:05:08.261Z,5.70
2023-05-02T00:07:53.847Z,5.05
2023-05-02T00:10:39.541Z,4.63
2023-05-02T00:13:24.926Z,7.05
2023-05-02T00:16:11.351Z,8.50
2023-05-02T00:18:56.658Z,7.63
2023-05-02T00:21:42.199Z,7.13
2023-05-02T00:24:27.679Z,6.53
2023-05-02T00:27:14.378Z,5.88
2023-05-02T00:30:00.886Z,5.38
2023-05-02T00:32:46.826Z,5.22
2023-05-02T00:35:33.580Z,4.00
2023-05-02T00:38:19.040Z,2.45
2023-05-02T00:41:05.779Z,2.35
2023-05-02T00:43:51.147Z,1.88
2023-05-02T00:46:36.635Z,1.88
2023-05-02T00:49:22.543Z,1.55
2023-05-02T00:52:08.973Z,1.90
2023-05-02T00:54:54.726Z,1.80
2023-05-02T00:57:40.893Z,2.08
2023-05-02T01:00:37.108Z,2.05
2023-05-02T01:03:59.765Z,2.05
2023-05-02T01:07:07.031Z,1.73
2023-05-02T01:10:07.857Z,2.22
2023-05-02T01:12:53.494Z,1.90
2023-05-02T01:15:42.199Z,2.17
2023-05-02T01:18:32.784Z,2.05
2023-05-02T01:21:18.732Z,2.65
2023-05-02T01:24:16.499Z,2.17
2023-05-02T01:27:14.424Z,1.90
2023-05-02T01:30:02.590Z,2.65
2023-05-02T01:32:52.584Z,2.53
2023-05-02T01:35:38.924Z,2.33
2023-05-02T01:38:25.509Z,2.38
2023-05-02T01:41:13.192Z,2.63
2023-05-02T01:44:00.121Z,1.90
2023-05-02T01:46:46.621Z,2.33
2023-05-02T01:49:34.950Z,2.75
2023-05-02T01:52:22.551Z,1.90
2023-05-02T01:55:13.069Z,3.00
2023-05-02T01:57:58.830Z,2.92
2023-05-02T02:00:45.935Z,1.92
2023-05-02T02:03:32.138Z,1.92
2023-05-02T02:06:19.879Z,1.67
2023-05-02T02:09:06.244Z,1.50
2023-05-02T02:12:06.244Z,1.65
2023-05-02T02:15:00.102Z,1.92
2023-05-02T02:17:55.486Z,2.00
2023-05-02T02:20:46.495Z,1.67
2023-05-02T02:23:34.827Z,1.95
2023-05-02T02:26:22.427Z,1.48
2023-05-02T02:29:07.656Z,1.80
2023-05-02T02:31:53.124Z,1.40
2023-05-02T02:34:38.332Z,1.73
2023-05-02T02:37:31.226Z,1.73
2023-05-02T02:40:28.754Z,1.73
2023-05-02T02:43:53.860Z,2.10
2023-05-02T02:46:42.458Z,2.40
2023-05-02T02:49:44.551Z,1.75
2023-05-02T02:55:55.946Z,1.88
2023-05-02T02:58:57.314Z,2.35
2023-05-02T03:01:47.128Z,1.70
2023-05-02T03:04:35.239Z,1.98
2023-05-02T03:07:22.288Z,1.88
2023-05-02T03:10:09.279Z,1.90
2023-05-02T03:12:56.410Z,1.85
2023-05-02T03:15:52.507Z,1.85
2023-05-02T03:18:43.491Z,2.00
2023-05-02T03:21:31.757Z,2.33
2023-05-02T03:24:23.338Z,1.77
2023-05-02T03:27:11.480Z,1.70
2023-05-02T03:30:01.765Z,1.58
2023-05-02T03:32:48.666Z,2.33
2023-05-02T03:35:34.985Z,1.90
2023-05-02T03:38:21.914Z,1.83
2023-05-02T03:41:09.095Z,1.80
2023-05-02T03:43:54.394Z,2.28
2023-05-02T03:46:42.208Z,1.83
2023-05-02T03:49:30.638Z,2.10
2023-05-02T03:52:16.045Z,2.00
2023-05-02T03:55:02.701Z,1.83
2023-05-02T03:57:49.414Z,2.03
2023-05-02T04:00:35.136Z,2.00
2023-05-02T04:03:24.424Z,2.10
2023-05-02T04:06:10.979Z,1.75
2023-05-02T04:08:58.639Z,2.30
2023-05-02T04:11:49.355Z,2.10
2023-05-02T04:14:35.154Z,2.70
2023-05-02T04:17:21.876Z,1.92
2023-05-02T04:20:09.471Z,1.75
2023-05-02T04:22:56.975Z,2.20
2023-05-02T04:25:50.612Z,1.60
2023-05-02T04:28:36.655Z,1.48
2023-05-02T04:31:23.058Z,1.60
2023-05-02T04:34:09.531Z,1.63
2023-05-02T04:37:01.691Z,1.88
2023-05-02T04:39:47.522Z,1.63
2023-05-02T04:42:43.136Z,1.65
2023-05-02T04:45:39.064Z,1.60
2023-05-02T04:48:30.388Z,1.83
2023-05-02T04:51:16.906Z,1.75
2023-05-02T04:54:05.664Z,1.73
2023-05-02T04:56:51.016Z,1.70
2023-05-02T04:59:38.639Z,1.50
2023-05-02T05:02:26.655Z,1.60
2023-05-02T05:05:14.041Z,2.10
2023-05-02T05:07:59.318Z,1.92
2023-05-02T05:10:48.664Z,1.85
2023-05-02T05:13:35.104Z,1.45
2023-05-02T05:16:20.969Z,2.03
2023-05-02T05:19:07.094Z,2.45
2023-05-02T05:21:53.280Z,1.92
2023-05-02T05:24:39.983Z,2.33
2023-05-02T05:27:25.351Z,1.80
2023-05-02T05:30:11.130Z,1.88
2023-05-02T05:32:57.013Z,1.67
2023-05-02T05:35:42.386Z,1.95
2023-05-02T05:38:28.313Z,2.17
2023-05-02T05:41:13.949Z,1.38
2023-05-02T05:44:05.395Z,2.30
2023-05-02T05:46:50.933Z,2.15
2023-05-02T05:49:39.153Z,1.63
2023-05-02T05:52:27.708Z,1.73
2023-05-02T05:55:14.466Z,1.70
2023-05-02T05:58:00.424Z,2.03
2023-05-02T06:00:46.175Z,2.10
2023-05-02T06:03:32.395Z,2.00
2023-05-02T06:06:18.661Z,1.90
2023-05-02T06:09:04.425Z,2.08
2023-05-02T06:11:51.882Z,2.13
2023-05-02T06:14:37.716Z,1.95
2023-05-02T06:17:23.092Z,2.15
2023-05-02T06:20:09.398Z,2.40
2023-05-02T06:22:54.906Z,1.63
2023-05-02T06:25:40.478Z,2.03
2023-05-02T06:28:26.312Z,1.38
2023-05-02T06:31:12.063Z,2.08
2023-05-02T06:33:57.928Z,1.50
2023-05-02T06:36:43.465Z,1.90
2023-05-02T06:39:28.873Z,2.38
2023-05-02T06:42:14.191Z,1.90
2023-05-02T06:44:59.609Z,1.60
2023-05-02T06:47:45.160Z,1.50
2023-05-02T06:50:30.806Z,1.52
2023-05-02T06:53:16.428Z,2.00
2023-05-02T06:56:02.191Z,1.77
2023-05-02T06:58:47.594Z,2.30
2023-05-02T07:01:32.854Z,2.40
2023-05-02T07:04:18.669Z,2.40
2023-05-02T07:07:04.263Z,2.78
2023-05-02T07:09:49.858Z,3.72
2023-05-02T07:12:35.682Z,2.85
2023-05-02T07:15:20.967Z,3.40
2023-05-02T07:18:06.607Z,3.42
2023-05-02T07:20:52.265Z,2.50
2023-05-02T07:23:37.848Z,2.15
2023-05-02T07:26:24.378Z,2.47
2023-05-02T07:29:09.911Z,2.75
2023-05-02T07:31:55.826Z,2.22
2023-05-02T07:34:41.601Z,3.13
2023-05-02T07:37:27.490Z,3.25
2023-05-02T07:40:13.436Z,4.50
2023-05-02T07:43:01.715Z,3.00
2023-05-02T07:45:47.147Z,3.20
2023-05-02T07:48:32.478Z,3.47
2023-05-02T07:51:20.533Z,3.58
2023-05-02T07:54:19.637Z,3.70
2023-05-02T07:57:08.407Z,4.00
2023-05-02T07:59:53.934Z,3.53
2023-05-02T08:02:39.494Z,2.97
2023-05-02T08:05:25.141Z,3.25
2023-05-02T08:08:10.291Z,3.90
2023-05-02T08:10:55.655Z,4.00
2023-05-02T08:13:41.071Z,3.15
2023-05-02T08:16:26.585Z,3.90
2023-05-02T08:19:11.954Z,2.97
2023-05-02T08:21:57.255Z,3.70
2023-05-02T08:24:42.753Z,3.90
2023-05-02T08:27:28.313Z,3.88
2023-05-02T08:30:14.334Z,4.00
2023-05-02T08:32:59.894Z,3.20
2023-05-02T08:35:45.241Z,3.83
2023-05-02T08:38:30.824Z,4.05
2023-05-02T08:41:18.248Z,4.10
2023-05-02T08:44:04.304Z,3.80
2023-05-02T08:46:51.153Z,3.25
2023-05-02T08:49:38.594Z,3.65
2023-05-02T08:52:24.938Z,3.10
2023-05-02T08:55:12.599Z,3.80
2023-05-02T08:57:58.806Z,3.60
2023-05-02T09:00:48.664Z,3.92
2023-05-02T09:03:36.118Z,4.22
2023-05-02T09:06:22.913Z,3.67
2023-05-02T09:09:08.702Z,4.28
2023-05-02T09:11:54.314Z,3.40
2023-05-02T09:14:40.285Z,3.85
2023-05-02T09:17:25.977Z,4.00
2023-05-02T09:20:13.189Z,4.05
2023-05-02T09:22:58.671Z,3.58
2023-05-02T09:25:44.210Z,4.30
2023-05-02T09:28:49.393Z,4.43
2023-05-02T09:34:27.989Z,4.00
2023-05-02T09:37:36.181Z,3.58
2023-05-02T09:40:23.317Z,4.18
2023-05-02T09:43:16.795Z,4.30
2023-05-02T09:46:07.391Z,3.78
2023-05-02T09:48:55.974Z,4.38
2023-05-02T09:51:44.039Z,4.70
2023-05-02T09:54:36.975Z,4.50
2023-05-02T09:57:23.435Z,4.70
2023-05-02T10:00:09.681Z,3.85
2023-05-02T10:02:58.279Z,3.85
2023-05-02T10:05:46.207Z,4.45
2023-05-02T10:08:33.673Z,3.85
2023-05-02T10:11:19.285Z,3.83
2023-05-02T10:14:09.345Z,3.53
2023-05-02T10:17:02.307Z,5.05
2023-05-02T10:20:07.841Z,3.50
2023-05-02T10:22:54.628Z,3.38
2023-05-02T10:25:40.346Z,3.78
2023-05-02T10:28:27.340Z,4.45
2023-05-02T10:31:17.733Z,3.60
2023-05-02T10:34:04.014Z,3.85
2023-05-02T10:36:49.697Z,3.60
2023-05-02T10:39:35.271Z,3.45
2023-05-02T10:42:21.112Z,3.85
2023-05-02T10:45:30.493Z,3.60
2023-05-02T10:48:20.905Z,3.58
2023-05-02T10:51:06.592Z,4.05
2023-05-02T10:53:52.315Z,4.18
2023-05-02T10:57:03.472Z,3.45
2023-05-02T10:59:49.377Z,4.32
2023-05-02T11:02:36.037Z,3.97
2023-05-02T11:05:22.957Z,4.10
2023-05-02T11:08:20.197Z,5.00
2023-05-02T11:11:45.015Z,4.32
2023-05-02T11:14:39.851Z,4.18
2023-05-02T11:17:25.974Z,4.53
2023-05-02T11:20:14.556Z,5.78
2023-05-02T11:23:26.067Z,4.30
2023-05-02T11:26:22.457Z,6.17
2023-05-02T11:29:08.118Z,4.93
2023-05-02T11:31:55.088Z,4.95
2023-05-02T11:34:42.697Z,5.40
2023-05-02T11:37:28.812Z,4.65
2023-05-02T11:40:15.708Z,6.57
2023-05-02T11:43:12.021Z,5.25
2023-05-02T11:46:00.135Z,5.07
2023-05-02T11:48:45.937Z,5.15
2023-05-02T11:51:31.779Z,5.07
2023-05-02T11:54:21.940Z,4.28
2023-05-02T11:57:07.560Z,5.18
2023-05-02T11:59:54.626Z,4.75
2023-05-02T12:02:44.282Z,3.95
2023-05-02T12:05:30.473Z,3.75
2023-05-02T12:08:28.719Z,4.20
2023-05-02T12:11:18.277Z,4.25
2023-05-02T12:14:04.432Z,4.13
2023-05-02T12:16:49.798Z,3.97
2023-05-02T12:19:37.209Z,3.83
2023-05-02T12:22:25.576Z,3.75
2023-05-02T12:25:10.927Z,3.17
2023-05-02T12:28:03.186Z,3.20
2023-05-02T12:30:50.566Z,2.80
2023-05-02T12:33:43.488Z,2.47
2023-05-02T12:36:29.570Z,2.03
2023-05-02T12:39:15.304Z,2.00
2023-05-02T12:42:00.995Z,1.65
2023-05-02T12:44:48.193Z,1.40
2023-05-02T12:47:46.441Z,1.30
2023-05-02T12:50:36.962Z,0.93
2023-05-02T12:53:45.935Z,1.15
2023-05-02T12:56:39.463Z,0.93
2023-05-02T12:59:31.009Z,0.93
2023-05-02T13:02:16.750Z,1.10
2023-05-02T13:05:02.063Z,1.08
2023-05-02T13:07:47.438Z,1.05
2023-05-02T13:10:33.268Z,1.70
2023-05-02T13:13:18.627Z,0.90
2023-05-02T13:16:04.150Z,1.23
2023-05-02T13:18:49.417Z,0.82
2023-05-02T13:21:34.860Z,0.85
2023-05-02T13:24:20.157Z,0.80
2023-05-02T13:27:05.724Z,0.90
2023-05-02T13:29:51.943Z,1.30
2023-05-02T13:32:37.525Z,1.08
2023-05-02T13:35:23.301Z,0.77
2023-05-02T13:38:08.812Z,0.52
2023-05-02T13:40:54.734Z,0.60
2023-05-02T13:43:40.820Z,0.60
2023-05-02T13:46:26.899Z,0.63
2023-05-02T13:49:12.557Z,0.60
2023-05-02T13:51:57.922Z,0.88
2023-05-02T13:54:43.318Z,0.70
2023-05-02T13:57:28.808Z,0.68
2023-05-02T14:00:14.931Z,0.65
2023-05-02T14:03:00.748Z,0.50
2023-05-02T14:05:46.538Z,0.88
2023-05-02T14:08:31.784Z,0.68
2023-05-02T14:11:17.727Z,0.80
2023-05-02T14:14:03.081Z,0.70
2023-05-02T14:16:50.198Z,0.90
2023-05-02T14:19:36.443Z,0.90
2023-05-02T14:22:22.113Z,0.80
2023-05-02T14:25:08.205Z,0.80
2023-05-02T14:27:53.828Z,0.52
2023-05-02T14:30:39.218Z,0.77
2023-05-02T14:33:24.505Z,0.50
2023-05-02T14:36:09.723Z,0.60
2023-05-02T14:38:55.111Z,0.60
2023-05-02T14:41:40.417Z,0.77
2023-05-02T14:44:25.919Z,0.63
2023-05-02T14:47:11.291Z,0.80
2023-05-02T14:49:56.722Z,0.70
2023-05-02T14:52:43.175Z,0.70
2023-05-02T14:55:28.726Z,0.43
2023-05-02T14:58:20.524Z,0.40
2023-05-02T15:01:06.489Z,0.40
2023-05-02T15:04:05.875Z,0.70
2023-05-02T15:06:54.605Z,0.43
2023-05-02T15:09:40.978Z,0.50
2023-05-02T15:12:26.885Z,0.50
2023-05-02T15:15:12.433Z,0.40
2023-05-02T15:17:57.995Z,0.40
2023-05-02T15:20:44.671Z,0.30
2023-05-02T15:23:30.332Z,0.68
2023-05-02T15:26:15.861Z,0.70
2023-05-02T15:29:01.109Z,0.63
2023-05-02T15:31:46.840Z,0.40
2023-05-02T15:34:32.179Z,0.50
2023-05-02T15:37:17.725Z,0.50
2023-05-02T15:40:04.450Z,0.57
2023-05-02T15:42:50.577Z,0.52
2023-05-02T15:45:36.340Z,0.60
2023-05-02T15:48:23.273Z,0.70
2023-05-02T15:51:10.795Z,0.50
2023-05-02T15:53:56.249Z,0.73
2023-05-02T15:56:41.687Z,0.52
2023-05-02T15:59:27.272Z,0.80
2023-05-02T16:02:12.862Z,0.65
2023-05-02T16:04:58.563Z,0.50
2023-05-02T16:07:44.115Z,0.47
2023-05-02T16:10:29.983Z,0.80
2023-05-02T16:13:15.370Z,0.75
2023-05-02T16:16:01.159Z,0.77
2023-05-02T16:18:46.529Z,0.70
2023-05-02T16:21:31.820Z,0.70
2023-05-02T16:24:17.093Z,0.90
2023-05-02T16:27:02.490Z,0.57
2023-05-02T16:29:48.576Z,0.85
2023-05-02T16:32:34.295Z,0.93
2023-05-02T16:35:20.085Z,0.45
2023-05-02T16:38:06.100Z,0.65
2023-05-02T16:40:51.919Z,0.57
2023-05-02T16:43:37.934Z,0.50
2023-05-02T16:46:23.486Z,0.82
2023-05-02T16:49:08.739Z,0.75
2023-05-02T16:51:55.001Z,0.90
2023-05-02T16:54:40.345Z,0.93
2023-05-02T16:57:25.918Z,0.57
2023-05-02T17:00:12.516Z,0.60
2023-05-02T17:02:58.149Z,1.02
2023-05-02T17:05:43.780Z,1.58
2023-05-02T17:08:29.336Z,1.20
2023-05-02T17:11:15.034Z,1.52
2023-05-02T17:14:00.675Z,1.58
2023-05-02T17:16:46.233Z,1.50
2023-05-02T17:19:31.796Z,1.27
2023-05-02T17:22:19.005Z,1.35
2023-05-02T17:25:06.362Z,1.52
2023-05-02T17:27:51.997Z,1.02
2023-05-02T17:30:37.822Z,1.17
2023-05-02T17:33:23.790Z,0.85
2023-05-02T17:36:09.401Z,0.98
2023-05-02T17:38:55.008Z,1.20
2023-05-02T17:41:40.537Z,1.10
2023-05-02T17:44:26.148Z,1.13
2023-05-02T17:47:12.169Z,1.48
2023-05-02T17:49:57.783Z,1.55
2023-05-02T17:52:43.073Z,1.35
2023-05-02T17:55:28.582Z,1.90
2023-05-02T17:58:14.763Z,1.83
2023-05-02T18:01:07.935Z,1.92
2023-05-02T18:03:54.457Z,2.58
2023-05-02T18:06:40.171Z,2.38
2023-05-02T18:09:25.831Z,2.78
2023-05-02T18:12:11.357Z,2.92
2023-05-02T18:14:56.981Z,3.10
2023-05-02T18:17:42.673Z,3.00
2023-05-02T18:20:28.549Z,2.88
2023-05-02T18:23:13.913Z,3.38
2023-05-02T18:25:59.307Z,3.22
2023-05-02T18:28:46.766Z,2.90
2023-05-02T18:31:32.502Z,2.60
2023-05-02T18:34:19.263Z,3.00
2023-05-02T18:37:04.913Z,2.60
2023-05-02T18:39:50.547Z,3.00
2023-05-02T18:42:36.404Z,3.58
2023-05-02T18:45:21.927Z,3.67
2023-05-02T18:48:07.547Z,3.78
2023-05-02T18:50:56.859Z,3.83
2023-05-02T18:53:42.098Z,4.05
2023-05-02T18:56:28.306Z,3.70
2023-05-02T18:59:13.772Z,3.92
2023-05-02T19:01:59.869Z,3.42
2023-05-02T19:04:45.790Z,3.40
2023-05-02T19:07:31.196Z,4.15
2023-05-02T19:10:16.556Z,3.58
2023-05-02T19:13:02.412Z,3.92
2023-05-02T19:15:47.755Z,3.58
2023-05-02T19:18:33.067Z,3.05
2023-05-02T19:21:18.272Z,3.65
2023-05-02T19:24:04.067Z,3.20
2023-05-02T19:26:49.604Z,4.00
2023-05-02T19:29:35.060Z,4.55
2023-05-02T19:32:24.023Z,3.63
2023-05-02T19:35:10.004Z,3.67
2023-05-02T19:37:55.747Z,3.58
2023-05-02T19:40:41.450Z,4.78
2023-05-02T19:43:26.940Z,4.55
2023-05-02T19:46:14.144Z,5.35
2023-05-02T19:48:59.869Z,4.53
2023-05-02T19:51:45.254Z,4.72
2023-05-02T19:54:31.106Z,5.47
2023-05-02T19:57:17.952Z,8.77
2023-05-02T20:00:04.948Z,8.20
2023-05-02T20:02:58.077Z,7.15
2023-05-02T20:05:43.754Z,5.82
2023-05-02T20:08:31.455Z,5.68
2023-05-02T20:11:17.129Z,5.72
2023-05-02T20:14:03.158Z,5.57
2023-05-02T20:16:48.479Z,4.85
2023-05-02T20:19:33.934Z,6.30
2023-05-02T20:22:19.509Z,6.18
2023-05-02T20:25:05.554Z,5.25
2023-05-02T20:27:51.853Z,4.43
2023-05-02T20:30:39.217Z,4.22
2023-05-02T20:33:27.586Z,4.55
2023-05-02T20:36:19.209Z,5.53
2023-05-02T20:39:07.474Z,4.65
2023-05-02T20:41:53.218Z,4.88
2023-05-02T20:44:39.226Z,5.28
2023-05-02T20:47:27.181Z,6.15
2023-05-02T20:50:12.925Z,5.28
2023-05-02T20:52:58.786Z,5.38
2023-05-02T20:55:44.453Z,5.25
2023-05-02T20:58:29.917Z,5.53
2023-05-02T21:01:15.520Z,5.40
2023-05-02T21:04:01.150Z,4.70
2023-05-02T21:06:47.733Z,5.85
2023-05-02T21:09:33.785Z,5.53
2023-05-02T21:12:19.624Z,5.05
2023-05-02T21:15:05.856Z,4.57
2023-05-02T21:18:00.266Z,5.22
2023-05-02T21:20:48.418Z,5.43
2023-05-02T21:23:34.016Z,5.72
2023-05-02T21:26:19.451Z,4.75
2023-05-02T21:29:05.706Z,5.25
2023-05-02T21:31:54.006Z,5.75
2023-05-02T21:34:40.167Z,5.25
2023-05-02T21:37:25.611Z,5.30
2023-05-02T21:40:11.863Z,6.13
2023-05-02T21:42:57.237Z,5.72
2023-05-02T21:45:47.189Z,5.82
2023-05-02T21:48:34.059Z,5.60
2023-05-02T21:51:19.687Z,5.22
2023-05-02T21:54:05.318Z,6.25
2023-05-02T21:56:50.793Z,4.88
2023-05-02T21:59:36.102Z,4.90
2023-05-02T22:02:21.744Z,4.47
2023-05-02T22:05:08.503Z,3.92
2023-05-02T22:07:54.071Z,4.25
2023-05-02T22:10:44.502Z,4.60
2023-05-02T22:13:30.132Z,4.22
2023-05-02T22:16:15.618Z,4.55
2023-05-02T22:19:01.641Z,5.18
2023-05-02T22:21:47.364Z,5.32
2023-05-02T22:24:33.433Z,5.75
2023-05-02T22:27:18.978Z,4.93
2023-05-02T22:30:05.310Z,5.40
2023-05-02T22:32:51.340Z,6.00
2023-05-02T22:35:37.784Z,6.25
2023-05-02T22:38:23.234Z,6.93
2023-05-02T22:41:08.923Z,6.57
2023-05-02T22:43:54.512Z,6.57
2023-05-02T22:46:39.992Z,7.20
2023-05-02T22:49:25.225Z,7.53
2023-05-02T22:52:11.271Z,6.53
2023-05-02T22:54:57.633Z,7.32
2023-05-02T22:57:43.523Z,8.13
2023-05-02T23:00:28.931Z,7.55
2023-05-02T23:03:14.481Z,6.68
2023-05-02T23:06:00.185Z,7.35
2023-05-02T23:08:45.977Z,7.93
2023-05-02T23:11:31.255Z,7.38
2023-05-02T23:14:16.627Z,7.95
2023-05-02T23:17:03.506Z,7.55
2023-05-02T23:19:50.016Z,7.43
2023-05-02T23:22:37.128Z,7.85
2023-05-02T23:25:24.047Z,7.82
2023-05-02T23:28:09.676Z,8.32
2023-05-02T23:30:55.104Z,7.15
2023-05-02T23:33:40.501Z,7.28
2023-05-02T23:36:27.217Z,7.13
2023-05-02T23:39:13.560Z,7.82
2023-05-02T23:41:59.060Z,8.95
2023-05-02T23:44:44.698Z,7.78
2023-05-02T23:47:30.342Z,7.65
2023-05-02T23:50:15.852Z,7.65
2023-05-02T23:53:01.694Z,7.60
2023-05-02T23:55:47.207Z,7.68
2023-05-02T23:58:32.632Z,7.80
